createdAt,value
2022-10-26T00:01:22.852Z,36.58
2022-10-26T00:03:50.857Z,31.80
2022-10-26T00:06:21.661Z,33.55
2022-10-26T00:08:49.804Z,34.80
2022-10-26T00:11:19.827Z,28.88
2022-10-26T00:13:48.538Z,37.13
2022-10-26T00:16:18.256Z,29.63
2022-10-26T00:21:19.871Z,26.70
2022-10-26T00:23:47.763Z,28.02
2022-10-26T00:26:15.697Z,22.73
2022-10-26T00:28:45.796Z,17.30
2022-10-26T00:31:16.162Z,17.88
2022-10-26T00:33:44.623Z,17.55
2022-10-26T00:36:14.761Z,18.85
2022-10-26T00:38:46.261Z,23.05
2022-10-26T00:41:16.550Z,21.38
2022-10-26T00:43:46.399Z,26.25
2022-10-26T00:46:17.210Z,27.55
2022-10-26T00:48:48.819Z,30.20
2022-10-26T00:51:23.383Z,21.80
2022-10-26T00:53:52.280Z,21.05
2022-10-26T00:56:20.651Z,27.15
2022-10-26T00:58:50.150Z,19.10
2022-10-26T01:01:17.944Z,17.00
2022-10-26T01:03:46.907Z,13.93
2022-10-26T01:06:15.251Z,16.50
2022-10-26T01:08:44.582Z,19.40
2022-10-26T01:11:13.310Z,16.33
2022-10-26T01:13:43.501Z,16.88
2022-10-26T01:16:32.681Z,19.17
2022-10-26T01:19:17.141Z,17.38
2022-10-26T01:21:51.240Z,15.98
2022-10-26T01:24:58.733Z,15.50
2022-10-26T01:27:31.491Z,15.60
2022-10-26T01:30:25.261Z,14.45
2022-10-26T01:33:15.449Z,16.80
2022-10-26T01:35:50.330Z,18.13
2022-10-26T01:38:44.930Z,15.43
2022-10-26T01:41:17.763Z,13.00
2022-10-26T01:43:51.171Z,14.13
2022-10-26T01:46:24.162Z,14.18
2022-10-26T01:48:55.670Z,13.90
2022-10-26T01:51:25.241Z,16.50
2022-10-26T01:53:52.951Z,14.60
2022-10-26T01:56:23.742Z,16.45
2022-10-26T01:59:12.345Z,15.65
2022-10-26T02:02:03.990Z,13.68
2022-10-26T02:04:42.341Z,15.43
2022-10-26T02:07:18.699Z,15.93
2022-10-26T02:09:57.321Z,15.95
2022-10-26T02:12:34.261Z,17.27
2022-10-26T02:15:09.000Z,14.77
2022-10-26T02:17:46.452Z,14.50
2022-10-26T02:20:19.900Z,13.68
2022-10-26T02:22:50.388Z,16.48
2022-10-26T02:25:22.511Z,16.63
2022-10-26T02:27:55.032Z,15.43
2022-10-26T02:30:23.231Z,15.30
2022-10-26T02:32:55.231Z,14.90
2022-10-26T02:35:28.142Z,14.75
2022-10-26T02:37:57.711Z,17.92
2022-10-26T02:40:27.830Z,17.92
2022-10-26T02:42:58.091Z,17.80
2022-10-26T02:45:29.014Z,14.43
2022-10-26T02:47:59.110Z,21.73
2022-10-26T02:50:32.351Z,12.65
2022-10-26T02:53:10.900Z,21.35
2022-10-26T02:55:44.452Z,18.27
2022-10-26T02:58:18.691Z,13.70
2022-10-26T03:00:47.050Z,18.73
2022-10-26T03:03:16.621Z,15.30
2022-10-26T03:05:44.599Z,13.23
2022-10-26T03:08:12.379Z,10.27
2022-10-26T03:10:42.824Z,11.60
2022-10-26T03:13:11.531Z,12.93
2022-10-26T03:18:13.410Z,10.52
2022-10-26T03:23:17.595Z,13.82
2022-10-26T03:25:45.220Z,12.32
2022-10-26T03:28:13.581Z,11.23
2022-10-26T03:30:41.249Z,13.13
2022-10-26T03:33:09.022Z,12.95
2022-10-26T03:35:36.860Z,12.93
2022-10-26T03:38:06.202Z,16.40
2022-10-26T03:40:33.859Z,13.60
2022-10-26T03:43:01.661Z,13.70
2022-10-26T03:45:29.490Z,11.75
2022-10-26T03:47:57.289Z,11.27
2022-10-26T03:50:24.919Z,9.65
2022-10-26T03:52:52.887Z,11.68
2022-10-26T03:55:22.159Z,12.80
2022-10-26T03:57:49.889Z,13.43
2022-10-26T04:00:18.619Z,14.30
2022-10-26T04:02:53.459Z,14.93
2022-10-26T04:05:21.218Z,11.75
2022-10-26T04:07:53.389Z,14.07
2022-10-26T04:10:22.850Z,11.60
2022-10-26T04:15:23.707Z,16.77
2022-10-26T04:17:56.970Z,11.32
2022-10-26T04:20:25.048Z,15.68
2022-10-26T04:23:03.096Z,12.07
2022-10-26T04:25:33.852Z,11.45
2022-10-26T04:28:03.009Z,13.45
2022-10-26T04:30:30.721Z,17.38
2022-10-26T04:32:58.589Z,17.38
2022-10-26T04:35:26.489Z,11.55
2022-10-26T04:37:59.184Z,13.05
2022-10-26T04:40:27.817Z,17.00
2022-10-26T04:42:57.802Z,18.35
2022-10-26T04:45:28.743Z,9.43
2022-10-26T04:48:01.285Z,16.45
2022-10-26T04:50:29.685Z,11.75
2022-10-26T04:52:58.551Z,17.00
2022-10-26T04:55:27.000Z,12.48
2022-10-26T04:57:58.694Z,18.05
2022-10-26T05:00:30.587Z,16.85
2022-10-26T05:03:02.281Z,16.10
2022-10-26T05:05:32.490Z,13.55
2022-10-26T05:08:01.033Z,14.32
2022-10-26T05:10:29.602Z,15.45
2022-10-26T05:13:01.014Z,16.27
2022-10-26T05:15:30.081Z,14.07
2022-10-26T05:17:59.462Z,13.85
2022-10-26T05:20:31.856Z,17.20
2022-10-26T05:23:01.601Z,16.92
2022-10-26T05:25:32.161Z,13.38
2022-10-26T05:28:03.151Z,18.70
2022-10-26T05:30:32.473Z,15.93
2022-10-26T05:33:03.522Z,19.40
2022-10-26T05:35:32.696Z,16.83
2022-10-26T05:38:01.000Z,25.90
2022-10-26T05:40:29.271Z,22.15
2022-10-26T05:43:04.697Z,22.45
2022-10-26T05:45:33.076Z,23.48
2022-10-26T05:48:02.801Z,29.40
2022-10-26T05:50:31.650Z,26.40
2022-10-26T05:52:59.909Z,23.35
2022-10-26T05:55:29.081Z,28.50
2022-10-26T05:58:02.068Z,28.60
2022-10-26T06:00:31.141Z,29.95
2022-10-26T06:03:14.654Z,38.67
2022-10-26T06:05:53.767Z,30.60
2022-10-26T06:08:23.914Z,31.02
2022-10-26T06:10:54.331Z,32.47
2022-10-26T06:13:24.716Z,26.13
2022-10-26T06:16:09.549Z,32.08
2022-10-26T06:18:46.592Z,35.80
2022-10-26T06:21:31.496Z,24.30
2022-10-26T06:24:06.054Z,29.60
2022-10-26T06:26:42.874Z,36.25
2022-10-26T06:29:22.990Z,30.65
2022-10-26T06:31:51.217Z,28.77
2022-10-26T06:34:27.621Z,36.42
2022-10-26T06:36:58.129Z,31.02
2022-10-26T06:39:29.103Z,39.80
2022-10-26T06:41:58.775Z,30.20
2022-10-26T06:44:29.250Z,31.77
2022-10-26T06:47:06.335Z,37.53
2022-10-26T06:49:38.257Z,31.20
2022-10-26T06:52:16.201Z,28.45
2022-10-26T06:54:52.251Z,24.52
2022-10-26T06:57:21.947Z,27.30
2022-10-26T06:59:53.768Z,25.92
2022-10-26T07:02:24.727Z,28.38
2022-10-26T07:04:52.974Z,30.63
2022-10-26T07:07:23.157Z,29.02
2022-10-26T07:09:51.824Z,29.30
2022-10-26T07:12:20.063Z,25.27
2022-10-26T07:14:48.535Z,28.02
2022-10-26T07:17:18.257Z,24.90
2022-10-26T07:19:46.505Z,27.88
2022-10-26T07:22:14.607Z,24.10
2022-10-26T07:24:42.770Z,17.42
2022-10-26T07:27:10.925Z,17.23
2022-10-26T07:29:40.069Z,18.52
2022-10-26T07:32:08.268Z,18.30
2022-10-26T07:34:37.913Z,19.77
2022-10-26T07:37:06.061Z,17.27
2022-10-26T07:39:34.314Z,17.67
2022-10-26T07:42:02.344Z,16.00
2022-10-26T07:44:30.605Z,22.98
2022-10-26T07:46:58.898Z,16.42
2022-10-26T07:49:27.897Z,21.08
2022-10-26T07:51:57.724Z,21.90
2022-10-26T07:54:26.039Z,25.45
2022-10-26T07:56:54.211Z,20.23
2022-10-26T07:59:22.530Z,29.38
2022-10-26T08:01:50.856Z,28.90
2022-10-26T08:04:19.271Z,28.10
2022-10-26T08:06:47.674Z,29.00
2022-10-26T08:09:17.362Z,30.52
2022-10-26T08:11:45.399Z,33.15
2022-10-26T08:14:13.885Z,34.20
2022-10-26T08:16:42.026Z,34.45
2022-10-26T08:19:10.387Z,35.40
2022-10-26T08:21:40.442Z,39.20
2022-10-26T08:24:09.895Z,43.88
2022-10-26T08:26:39.507Z,46.47
2022-10-26T08:29:07.887Z,37.35
2022-10-26T08:31:36.105Z,38.88
2022-10-26T08:34:04.832Z,31.15
2022-10-26T08:36:33.134Z,28.13
2022-10-26T08:39:01.397Z,23.08
2022-10-26T08:41:37.098Z,22.02
2022-10-26T08:44:20.010Z,22.03
2022-10-26T08:46:53.679Z,17.58
2022-10-26T08:49:26.059Z,21.65
2022-10-26T08:51:58.284Z,15.75
2022-10-26T08:57:17.281Z,17.60
2022-10-26T08:59:53.279Z,18.85
2022-10-26T09:02:22.170Z,15.05
2022-10-26T09:07:37.821Z,17.33
2022-10-26T09:10:19.616Z,13.80
2022-10-26T09:12:54.928Z,20.50
2022-10-26T09:15:35.283Z,19.30
2022-10-26T09:18:16.210Z,17.55
2022-10-26T09:21:01.632Z,13.32
2022-10-26T09:23:42.100Z,20.58
2022-10-26T09:26:14.341Z,18.48
2022-10-26T09:28:45.189Z,17.75
2022-10-26T09:31:17.530Z,23.38
2022-10-26T09:33:45.650Z,17.08
2022-10-26T09:36:18.745Z,20.63
2022-10-26T09:38:53.926Z,22.98
2022-10-26T09:41:29.569Z,18.67
2022-10-26T09:44:06.259Z,17.23
2022-10-26T09:46:43.695Z,19.75
2022-10-26T09:49:15.793Z,20.75
2022-10-26T09:51:46.503Z,24.10
2022-10-26T09:54:17.153Z,17.48
2022-10-26T09:59:24.628Z,12.52
2022-10-26T10:01:54.323Z,22.08
2022-10-26T10:04:23.533Z,21.85
2022-10-26T10:06:52.632Z,23.55
2022-10-26T10:09:22.951Z,24.48
2022-10-26T10:11:57.082Z,18.48
2022-10-26T10:14:26.475Z,20.63
2022-10-26T10:16:58.821Z,19.08
2022-10-26T10:19:29.011Z,21.38
2022-10-26T10:21:59.380Z,19.20
2022-10-26T10:24:32.221Z,22.80
2022-10-26T10:27:02.991Z,20.98
2022-10-26T10:29:33.013Z,25.48
2022-10-26T10:32:03.710Z,19.65
2022-10-26T10:34:32.991Z,27.10
2022-10-26T10:37:05.432Z,20.63
2022-10-26T10:39:43.593Z,21.05
2022-10-26T10:42:19.070Z,20.50
2022-10-26T10:44:51.682Z,17.52
2022-10-26T10:47:24.380Z,20.83
2022-10-26T10:49:56.060Z,20.83
2022-10-26T10:52:27.750Z,22.48
2022-10-26T10:55:10.833Z,17.95
2022-10-26T10:57:55.260Z,20.83
2022-10-26T11:00:25.861Z,26.33
2022-10-26T11:03:47.703Z,25.80
2022-10-26T11:06:19.380Z,18.58
2022-10-26T11:08:51.480Z,20.08
2022-10-26T11:11:23.461Z,24.02
2022-10-26T11:13:55.651Z,17.13
2022-10-26T11:16:28.901Z,24.38
2022-10-26T11:19:03.529Z,21.48
2022-10-26T11:21:34.412Z,20.38
2022-10-26T11:24:15.305Z,17.25
2022-10-26T11:26:49.445Z,24.75
2022-10-26T11:29:24.231Z,24.67
2022-10-26T11:31:58.078Z,20.25
2022-10-26T11:34:34.893Z,18.80
2022-10-26T11:37:09.836Z,26.92
2022-10-26T11:39:44.924Z,23.15
2022-10-26T11:42:22.372Z,22.00
2022-10-26T11:44:56.612Z,21.60
2022-10-26T11:47:35.220Z,20.98
2022-10-26T11:50:17.130Z,19.58
2022-10-26T11:52:50.796Z,20.27
2022-10-26T11:55:20.160Z,27.13
2022-10-26T11:57:49.132Z,18.23
2022-10-26T12:00:20.913Z,20.67
2022-10-26T12:02:53.016Z,25.50
2022-10-26T12:05:25.817Z,21.58
2022-10-26T12:07:56.901Z,22.05
2022-10-26T12:10:30.523Z,21.80
2022-10-26T12:13:06.158Z,25.30
2022-10-26T12:18:54.540Z,21.65
2022-10-26T12:21:26.731Z,27.17
2022-10-26T12:23:56.933Z,24.92
2022-10-26T12:26:52.461Z,23.92
2022-10-26T12:29:39.270Z,22.23
2022-10-26T12:32:54.999Z,24.75
2022-10-26T12:35:38.382Z,22.25
2022-10-26T12:38:48.799Z,23.83
2022-10-26T12:41:25.758Z,26.50
2022-10-26T12:43:59.723Z,24.52
2022-10-26T12:46:43.415Z,22.20
2022-10-26T12:49:56.321Z,26.10
2022-10-26T12:52:53.283Z,23.20
2022-10-26T12:55:51.183Z,18.77
2022-10-26T12:59:00.025Z,23.23
2022-10-26T13:01:58.553Z,25.23
2022-10-26T13:04:56.050Z,23.50
2022-10-26T13:07:25.953Z,27.92
2022-10-26T13:10:00.869Z,19.17
2022-10-26T13:12:37.619Z,20.85
2022-10-26T13:15:20.998Z,15.60
2022-10-26T13:17:57.039Z,27.73
2022-10-26T13:20:25.185Z,24.80
2022-10-26T13:22:53.672Z,30.13
2022-10-26T13:25:25.108Z,26.15
2022-10-26T13:28:05.735Z,25.52
2022-10-26T13:30:44.965Z,18.85
2022-10-26T13:33:22.771Z,19.60
2022-10-26T13:35:54.192Z,19.35
2022-10-26T13:38:26.207Z,22.10
2022-10-26T13:41:08.161Z,23.10
2022-10-26T13:43:37.829Z,22.27
2022-10-26T13:46:07.507Z,21.63
2022-10-26T13:48:40.005Z,19.38
2022-10-26T13:51:19.082Z,23.95
2022-10-26T13:53:51.779Z,27.60
2022-10-26T13:56:27.740Z,22.23
2022-10-26T13:59:00.668Z,24.33
2022-10-26T14:01:32.409Z,23.67
2022-10-26T14:04:00.447Z,19.48
2022-10-26T14:06:32.652Z,23.77
2022-10-26T14:09:03.703Z,20.73
2022-10-26T14:11:37.359Z,22.38
2022-10-26T14:14:05.499Z,27.05
2022-10-26T14:16:35.678Z,24.15
2022-10-26T14:19:04.251Z,24.60
2022-10-26T14:21:32.287Z,20.98
2022-10-26T14:24:07.733Z,20.88
2022-10-26T14:26:40.237Z,19.40
2022-10-26T14:29:17.754Z,20.92
2022-10-26T14:31:48.002Z,24.42
2022-10-26T14:34:16.075Z,19.00
2022-10-26T14:36:48.994Z,19.17
2022-10-26T14:39:25.116Z,27.27
2022-10-26T14:41:55.740Z,24.05
2022-10-26T14:44:25.980Z,19.08
2022-10-26T14:46:55.399Z,27.98
2022-10-26T14:49:25.081Z,25.45
2022-10-26T14:51:58.343Z,19.80
2022-10-26T14:54:28.046Z,18.95
2022-10-26T14:56:56.502Z,19.05
2022-10-26T14:59:27.171Z,19.40
2022-10-26T15:01:59.162Z,25.85
2022-10-26T15:04:34.533Z,20.90
2022-10-26T15:07:09.033Z,20.98
2022-10-26T15:09:43.562Z,23.60
2022-10-26T15:12:29.991Z,16.67
2022-10-26T15:15:08.154Z,20.30
2022-10-26T15:17:41.671Z,25.58
2022-10-26T15:20:16.840Z,19.63
2022-10-26T15:22:51.954Z,16.42
2022-10-26T15:25:23.375Z,21.60
2022-10-26T15:27:52.155Z,22.33
2022-10-26T15:30:24.323Z,21.80
2022-10-26T15:32:54.834Z,19.00
2022-10-26T15:35:29.025Z,17.05
2022-10-26T15:37:58.206Z,18.38
2022-10-26T15:40:27.057Z,23.25
2022-10-26T15:42:55.894Z,16.92
2022-10-26T15:45:25.732Z,26.80
2022-10-26T15:47:59.432Z,21.65
2022-10-26T15:50:29.112Z,21.40
2022-10-26T15:53:01.356Z,29.27
2022-10-26T15:55:30.589Z,24.13
2022-10-26T15:57:58.295Z,28.88
2022-10-26T16:00:26.090Z,24.58
2022-10-26T16:02:55.052Z,30.17
2022-10-26T16:05:22.831Z,21.95
2022-10-26T16:07:50.920Z,26.48
2022-10-26T16:10:22.599Z,25.20
2022-10-26T16:12:50.512Z,18.65
2022-10-26T16:15:20.323Z,19.15
2022-10-26T16:17:48.484Z,21.90
2022-10-26T16:20:19.754Z,25.48
2022-10-26T16:22:48.479Z,19.63
2022-10-26T16:25:28.228Z,22.45
2022-10-26T16:27:56.224Z,19.45
2022-10-26T16:30:29.455Z,17.90
2022-10-26T16:32:58.264Z,26.45
2022-10-26T16:35:27.329Z,17.65
2022-10-26T16:37:54.981Z,20.88
2022-10-26T16:40:22.830Z,22.60
2022-10-26T16:42:50.505Z,19.75
2022-10-26T16:45:18.436Z,20.50
2022-10-26T16:47:46.500Z,22.52
2022-10-26T16:50:14.977Z,20.17
2022-10-26T16:52:44.321Z,26.10
2022-10-26T16:55:12.086Z,30.33
2022-10-26T16:57:39.751Z,29.40
2022-10-26T17:00:08.559Z,31.60
2022-10-26T17:02:40.208Z,27.15
2022-10-26T17:05:09.827Z,23.40
2022-10-26T17:07:38.598Z,23.70
2022-10-26T17:10:08.289Z,27.48
2022-10-26T17:12:36.029Z,21.27
2022-10-26T17:15:03.879Z,22.00
2022-10-26T17:17:31.565Z,19.60
2022-10-26T17:19:59.183Z,24.00
2022-10-26T17:22:27.476Z,25.42
2022-10-26T17:24:58.349Z,21.30
2022-10-26T17:27:27.870Z,27.48
2022-10-26T17:29:55.753Z,18.15
2022-10-26T17:32:23.855Z,17.98
2022-10-26T17:34:51.574Z,19.45
2022-10-26T17:37:19.411Z,26.65
2022-10-26T17:39:47.291Z,23.27
2022-10-26T17:42:15.003Z,19.63
2022-10-26T17:44:44.076Z,21.13
2022-10-26T17:47:12.226Z,19.92
2022-10-26T17:49:40.227Z,16.90
2022-10-26T17:52:08.012Z,26.48
2022-10-26T17:54:35.942Z,25.02
2022-10-26T17:57:03.958Z,24.25
2022-10-26T17:59:31.798Z,22.52
2022-10-26T18:02:01.175Z,22.92
2022-10-26T18:04:29.122Z,23.98
2022-10-26T18:06:56.912Z,20.17
2022-10-26T18:10:08.862Z,19.23
2022-10-26T18:12:45.321Z,23.27
2022-10-26T18:15:13.183Z,22.52
2022-10-26T18:17:42.956Z,23.55
2022-10-26T18:20:11.585Z,23.35
2022-10-26T18:22:40.013Z,25.17
2022-10-26T18:25:12.157Z,26.30
2022-10-26T18:27:39.977Z,24.38
2022-10-26T18:30:13.760Z,20.48
2022-10-26T18:32:44.164Z,19.08
2022-10-26T18:35:12.281Z,23.25
2022-10-26T18:37:40.141Z,28.98
2022-10-26T18:40:09.014Z,25.25
2022-10-26T18:45:09.903Z,26.92
2022-10-26T18:47:37.749Z,22.35
2022-10-26T18:50:08.941Z,21.55
2022-10-26T18:52:36.757Z,24.35
2022-10-26T18:55:06.026Z,24.05
2022-10-26T18:57:33.839Z,24.45
2022-10-26T19:00:02.052Z,33.08
2022-10-26T19:02:30.083Z,23.20
2022-10-26T19:04:59.006Z,19.30
2022-10-26T19:07:28.466Z,23.25
2022-10-26T19:10:10.697Z,30.40
2022-10-26T19:12:38.446Z,28.58
2022-10-26T19:15:07.129Z,23.42
2022-10-26T19:17:35.270Z,24.15
2022-10-26T19:20:03.089Z,25.30
2022-10-26T19:22:33.036Z,22.67
2022-10-26T19:25:01.152Z,20.73
2022-10-26T19:27:29.017Z,18.23
2022-10-26T19:29:56.827Z,25.27
2022-10-26T19:32:27.875Z,20.58
2022-10-26T19:34:55.675Z,18.70
2022-10-26T19:37:28.151Z,21.13
2022-10-26T19:39:57.806Z,25.02
2022-10-26T19:42:25.544Z,24.30
2022-10-26T19:44:53.423Z,20.48
2022-10-26T19:47:21.158Z,20.55
2022-10-26T19:49:48.970Z,22.33
2022-10-26T19:54:50.220Z,22.92
2022-10-26T19:57:19.540Z,28.73
2022-10-26T19:59:47.268Z,20.08
2022-10-26T20:02:14.967Z,23.77
2022-10-26T20:04:42.720Z,20.95
2022-10-26T20:07:10.633Z,19.02
2022-10-26T20:09:42.138Z,18.60
2022-10-26T20:12:12.875Z,15.25
2022-10-26T20:14:43.015Z,18.05
2022-10-26T20:17:12.517Z,15.23
2022-10-26T20:19:40.308Z,24.65
2022-10-26T20:22:08.287Z,21.08
2022-10-26T20:24:36.134Z,14.25
2022-10-26T20:27:04.368Z,20.63
2022-10-26T20:29:32.125Z,18.15
2022-10-26T20:32:01.321Z,21.65
2022-10-26T20:37:01.621Z,19.65
2022-10-26T20:39:29.863Z,19.50
2022-10-26T20:42:01.058Z,26.33
2022-10-26T20:44:34.551Z,16.42
2022-10-26T20:47:04.493Z,18.20
2022-10-26T20:49:32.936Z,20.65
2022-10-26T20:52:20.764Z,20.17
2022-10-26T20:54:55.247Z,21.58
2022-10-26T20:57:29.228Z,15.77
2022-10-26T21:00:04.052Z,17.17
2022-10-26T21:02:33.452Z,17.73
2022-10-26T21:05:01.846Z,17.60
2022-10-26T21:07:29.691Z,17.13
2022-10-26T21:09:57.290Z,17.70
2022-10-26T21:12:24.973Z,17.83
2022-10-26T21:14:52.484Z,19.83
2022-10-26T21:17:20.157Z,16.52
2022-10-26T21:19:49.255Z,16.52
2022-10-26T21:22:17.058Z,16.23
2022-10-26T21:24:44.795Z,16.00
2022-10-26T21:27:12.497Z,16.83
2022-10-26T21:29:40.190Z,20.98
2022-10-26T21:32:07.868Z,17.23
2022-10-26T21:34:35.621Z,18.55
2022-10-26T21:37:04.684Z,16.83
2022-10-26T21:39:32.333Z,18.98
2022-10-26T21:42:00.114Z,21.02
2022-10-26T21:44:43.065Z,16.50
2022-10-26T21:47:12.817Z,22.75
2022-10-26T21:52:15.567Z,17.95
2022-10-26T21:54:43.200Z,21.77
2022-10-26T21:57:11.198Z,19.55
2022-10-26T21:59:38.996Z,20.67
2022-10-26T22:02:06.923Z,23.17
2022-10-26T22:04:34.798Z,22.73
2022-10-26T22:07:02.947Z,24.20
2022-10-26T22:09:37.363Z,20.55
2022-10-26T22:12:12.776Z,16.45
2022-10-26T22:14:41.527Z,20.88
2022-10-26T22:17:09.598Z,22.40
2022-10-26T22:19:38.058Z,21.48
2022-10-26T22:22:05.831Z,20.17
2022-10-26T22:24:34.987Z,19.63
2022-10-26T22:27:02.837Z,19.42
2022-10-26T22:29:30.619Z,17.95
2022-10-26T22:31:58.689Z,16.73
2022-10-26T22:34:26.407Z,17.55
2022-10-26T22:36:54.299Z,18.15
2022-10-26T22:39:22.039Z,15.30
2022-10-26T22:41:51.343Z,17.63
2022-10-26T22:44:19.018Z,16.15
2022-10-26T22:46:49.863Z,20.90
2022-10-26T22:49:17.674Z,18.65
2022-10-26T22:51:45.323Z,15.85
2022-10-26T22:54:13.424Z,12.35
2022-10-26T22:56:41.106Z,17.55
2022-10-26T22:59:10.199Z,13.35
2022-10-26T23:01:39.475Z,22.55
2022-10-26T23:04:07.439Z,13.45
2022-10-26T23:06:35.230Z,17.92
2022-10-26T23:09:03.035Z,15.38
2022-10-26T23:11:30.903Z,17.42
2022-10-26T23:13:59.886Z,17.67
2022-10-26T23:16:30.423Z,14.02
2022-10-26T23:18:58.942Z,14.95
2022-10-26T23:21:28.372Z,17.45
2022-10-26T23:23:56.933Z,16.23
2022-10-26T23:26:25.028Z,12.50
2022-10-26T23:28:53.107Z,13.77
2022-10-26T23:31:23.307Z,15.30
2022-10-26T23:33:53.868Z,12.10
2022-10-26T23:36:22.018Z,15.18
2022-10-26T23:38:50.379Z,16.63
2022-10-26T23:41:18.399Z,14.25
2022-10-26T23:43:46.439Z,13.07
2022-10-26T23:46:14.384Z,14.35
2022-10-26T23:48:42.798Z,15.52
2022-10-26T23:51:12.117Z,12.88
2022-10-26T23:53:40.048Z,12.00
2022-10-26T23:56:08.257Z,11.88
2022-10-26T23:58:36.169Z,12.23
